Time;durP1;ratioP1;P1;durP2;ratioP2;P2;SDS_P1;SDS_P2;PMS_P1;PMS_P2;Temp;Humidity;BMP_temperature;BMP_pressure;BME280_temperature;BME280_humidity;BME280_pressure;Samples;Min_cycle;Max_cycle;Signal;HPM_P1;HPM_P2
2024/01/01 00:01:26;;;;;;;31.50;16.37;;;;;;;7.89;100.00;99915.22;1469831;88;21434;-83
2024/01/01 00:03:53;;;;;;;31.37;17.77;;;;;;;7.86;100.00;99913.70;1469337;87;21523;-83
2024/01/01 00:06:19;;;;;;;43.30;19.53;;;;;;;7.85;100.00;99919.95;1469930;88;21589;-83
2024/01/01 00:08:45;;;;;;;39.37;18.93;;;;;;;7.82;100.00;99908.84;1471114;88;21383;-83
2024/01/01 00:11:11;;;;;;;39.13;19.43;;;;;;;7.81;100.00;99909.83;1465147;88;21426;-84
2024/01/01 00:13:37;;;;;;;26.17;15.10;;;;;;;7.82;100.00;99906.21;1469329;88;22587;-83
2024/01/01 00:16:04;;;;;;;19.97;11.60;;;;;;;7.83;100.00;99897.35;1482164;88;21389;-83
2024/01/01 00:18:30;;;;;;;18.70;10.93;;;;;;;7.85;100.00;99900.66;1470545;87;21531;-84
2024/01/01 00:20:57;;;;;;;17.03;10.30;;;;;;;7.83;100.00;99898.67;1481786;87;22196;-84
2024/01/01 00:23:23;;;;;;;16.33;9.80;;;;;;;7.82;100.00;99907.53;1476430;87;21604;-83
2024/01/01 00:25:49;;;;;;;17.30;10.03;;;;;;;7.76;100.00;99898.88;1467318;87;21449;-84
2024/01/01 00:28:15;;;;;;;21.03;12.13;;;;;;;7.73;100.00;99896.05;1473407;87;21479;-83
2024/01/01 00:30:41;;;;;;;15.10;9.87;;;;;;;7.72;100.00;99900.15;1470835;87;21495;-84
2024/01/01 00:33:07;;;;;;;15.33;9.63;;;;;;;7.72;100.00;99894.39;1471851;87;21375;-84
2024/01/01 00:35:34;;;;;;;12.40;8.80;;;;;;;7.72;100.00;99892.25;1470447;88;21397;-84
2024/01/01 00:38:00;;;;;;;14.50;10.20;;;;;;;7.73;100.00;99884.68;1452928;88;21405;-83
2024/01/01 00:40:26;;;;;;;12.50;9.53;;;;;;;7.71;100.00;99882.66;1470664;88;21309;-84
2024/01/01 00:42:52;;;;;;;12.47;9.07;;;;;;;7.67;100.00;99873.73;1476445;88;22425;-84
2024/01/01 00:45:19;;;;;;;15.20;11.43;;;;;;;7.66;100.00;99868.13;1467755;87;21383;-84
2024/01/01 00:47:45;;;;;;;14.60;8.63;;;;;;;7.63;100.00;99864.47;1469704;88;21294;-83
2024/01/01 00:50:12;;;;;;;12.47;8.67;;;;;;;7.59;100.00;99857.80;1478998;88;21396;-84
2024/01/01 00:52:38;;;;;;;11.80;8.37;;;;;;;7.58;100.00;99861.42;1459546;88;21494;-85
2024/01/01 00:55:05;;;;;;;11.93;7.67;;;;;;;7.56;100.00;99862.05;1473912;88;22271;-84
2024/01/01 00:57:31;;;;;;;23.80;10.50;;;;;;;7.57;100.00;99855.83;1469099;87;21554;-84
2024/01/01 00:59:57;;;;;;;15.00;10.40;;;;;;;7.58;100.00;99853.52;1469489;88;21530;-84
2024/01/01 01:02:23;;;;;;;13.50;8.30;;;;;;;7.56;100.00;99845.42;1464402;88;21338;-84
2024/01/01 01:04:49;;;;;;;15.77;9.47;;;;;;;7.53;100.00;99841.27;1482440;88;22212;-84
2024/01/01 01:07:16;;;;;;;15.67;9.33;;;;;;;7.53;100.00;99837.31;1470208;87;21353;-83
2024/01/01 01:09:42;;;;;;;13.57;7.97;;;;;;;7.56;100.00;99833.56;1476839;88;21824;-84
2024/01/01 01:12:08;;;;;;;12.10;8.30;;;;;;;7.57;100.00;99836.56;1478440;87;21317;-85
2024/01/01 01:14:34;;;;;;;11.10;7.90;;;;;;;7.58;100.00;99840.36;1471052;87;21463;-84
2024/01/01 01:17:00;;;;;;;13.07;8.13;;;;;;;7.59;100.00;99832.78;1467480;88;21368;-84
2024/01/01 01:19:26;;;;;;;11.63;7.60;;;;;;;7.59;100.00;99827.52;1468416;88;22416;-83
2024/01/01 01:21:52;;;;;;;10.73;7.57;;;;;;;7.58;100.00;99821.92;1472093;87;21287;-84
2024/01/01 01:24:18;;;;;;;12.57;7.93;;;;;;;7.58;100.00;99825.87;1474820;88;22322;-83
2024/01/01 01:26:45;;;;;;;11.50;7.37;;;;;;;7.58;100.00;99825.87;1478376;87;21449;-84
2024/01/01 01:29:12;;;;;;;9.87;6.70;;;;;;;7.58;100.00;99817.97;1471719;88;21560;-82
2024/01/01 01:31:41;;;;;;;9.57;7.33;;;;;;;7.61;100.00;99812.41;1467690;87;21513;-83
2024/01/01 01:34:07;;;;;;;11.00;6.53;;;;;;;7.64;100.00;99808.17;1475195;88;21597;-81
2024/01/01 01:36:34;;;;;;;13.60;7.37;;;;;;;7.66;100.00;99810.68;1470086;88;22321;-81
2024/01/01 01:39:00;;;;;;;11.50;7.43;;;;;;;7.66;100.00;99807.55;1480853;88;21515;-80
2024/01/01 01:41:26;;;;;;;9.77;6.87;;;;;;;7.67;100.00;99809.70;1462385;88;22402;-80
2024/01/01 01:43:52;;;;;;;12.10;6.00;;;;;;;7.66;100.00;99815.95;1471719;88;21487;-80
2024/01/01 01:46:19;;;;;;;10.77;6.93;;;;;;;7.65;100.00;99812.95;1475023;87;21310;-82
2024/01/01 01:48:45;;;;;;;9.43;6.73;;;;;;;7.66;100.00;99812.00;1474064;88;22365;-80
2024/01/01 01:51:12;;;;;;;12.97;8.10;;;;;;;7.67;100.00;99809.20;1481215;88;21516;-80
2024/01/01 01:53:39;;;;;;;8.77;6.17;;;;;;;7.71;100.00;99799.69;1477069;88;21411;-80
2024/01/01 01:56:07;;;;;;;10.93;7.77;;;;;;;7.72;100.00;99801.38;1469943;88;21323;-80
2024/01/01 01:58:34;;;;;;;12.67;7.87;;;;;;;7.73;100.00;99799.89;1470094;87;22410;-80
2024/01/01 02:01:01;;;;;;;17.30;8.50;;;;;;;7.74;100.00;99795.45;1477247;87;21542;-80
2024/01/01 02:03:27;;;;;;;13.17;8.20;;;;;;;7.73;100.00;99796.44;1471405;88;21338;-80
2024/01/01 02:05:55;;;;;;;14.80;8.27;;;;;;;7.73;100.00;99795.13;1469898;87;22262;-80
2024/01/01 02:08:22;;;;;;;12.73;7.77;;;;;;;7.72;100.00;99791.66;1473985;87;22196;-81
2024/01/01 02:10:49;;;;;;;10.37;6.57;;;;;;;7.71;100.00;99790.48;1475779;88;21383;-81
2024/01/01 02:13:26;;;;;;;9.97;7.07;;;;;;;7.74;100.00;99779.64;1475499;88;22300;-81
2024/01/01 02:15:52;;;;;;;12.50;7.63;;;;;;;7.76;100.00;99781.66;1467191;88;21419;-81
2024/01/01 02:18:19;;;;;;;13.90;8.00;;;;;;;7.77;100.00;99779.35;1463067;88;21589;-81
2024/01/01 02:20:45;;;;;;;14.13;8.20;;;;;;;7.77;100.00;99778.04;1471969;87;21398;-81
2024/01/01 02:23:14;;;;;;;21.13;9.57;;;;;;;7.76;100.00;99786.43;1467102;88;21360;-82
2024/01/01 02:25:40;;;;;;;18.20;9.43;;;;;;;7.77;100.00;99787.26;1471954;88;21382;-83
2024/01/01 02:28:06;;;;;;;17.13;8.83;;;;;;;7.75;100.00;99793.18;1468663;88;21478;-82
2024/01/01 02:30:32;;;;;;;13.67;8.57;;;;;;;7.75;100.00;99789.23;1470647;87;22301;-84
2024/01/01 02:32:58;;;;;;;14.83;8.07;;;;;;;7.78;100.00;99787.63;1473202;87;22211;-82
2024/01/01 02:35:24;;;;;;;15.87;9.57;;;;;;;7.80;100.00;99790.95;1473966;87;21502;-82
2024/01/01 02:37:51;;;;;;;11.90;7.40;;;;;;;7.82;100.00;99792.92;1468318;88;21868;-83
2024/01/01 02:40:17;;;;;;;16.20;9.53;;;;;;;7.82;100.00;99787.66;1477682;87;21375;-83
2024/01/01 02:42:43;;;;;;;15.80;9.30;;;;;;;7.82;100.00;99783.70;1479945;88;21323;-82
2024/01/01 02:45:10;;;;;;;13.53;8.77;;;;;;;7.81;100.00;99786.84;1471638;88;21382;-82
2024/01/01 02:47:37;;;;;;;15.60;9.43;;;;;;;7.80;100.00;99785.19;1469769;88;22284;-81
2024/01/01 02:50:05;;;;;;;15.67;9.43;;;;;;;7.80;100.00;99780.41;1476286;88;21471;-82
2024/01/01 02:52:31;;;;;;;35.00;13.47;;;;;;;7.79;100.00;99780.05;1470988;88;21465;-82
2024/01/01 02:54:57;;;;;;;30.70;12.27;;;;;;;7.79;100.00;99777.41;1471205;88;21575;-84
2024/01/01 02:57:26;;;;;;;24.03;11.30;;;;;;;7.80;100.00;99776.45;1466097;88;21397;-83
2024/01/01 02:59:52;;;;;;;22.13;10.63;;;;;;;7.81;100.00;99774.16;1472872;87;21551;-83
2024/01/01 03:02:18;;;;;;;16.10;9.60;;;;;;;7.80;100.00;99779.09;1469365;88;22359;-83
2024/01/01 03:04:45;;;;;;;24.33;12.37;;;;;;;7.80;100.00;99777.78;1469367;87;21353;-81
2024/01/01 03:07:11;;;;;;;19.47;10.53;;;;;;;7.79;100.00;99772.97;1468557;87;22336;-81
2024/01/01 03:09:37;;;;;;;23.43;12.30;;;;;;;7.76;100.00;99773.75;1478235;88;21497;-82
2024/01/01 03:12:05;;;;;;;24.83;12.40;;;;;;;7.75;100.00;99773.42;1472325;88;21464;-82
2024/01/01 03:14:32;;;;;;;18.80;9.37;;;;;;;7.74;100.00;99773.06;1468771;87;21508;-80
2024/01/01 03:16:58;;;;;;;14.73;9.23;;;;;;;7.74;100.00;99774.38;1474309;88;21397;-81
2024/01/01 03:19:24;;;;;;;14.57;9.23;;;;;;;7.74;100.00;99774.38;1464960;88;21455;-80
2024/01/01 03:21:50;;;;;;;16.10;9.10;;;;;;;7.73;100.00;99781.45;1468101;88;21361;-81
2024/01/01 03:24:16;;;;;;;14.67;9.40;;;;;;;7.74;100.00;99776.55;1473210;87;21376;-81
2024/01/01 03:26:42;;;;;;;17.03;9.40;;;;;;;7.75;100.00;99775.56;1472501;88;21352;-81
2024/01/01 03:29:08;;;;;;;14.17;9.03;;;;;;;7.74;100.00;99773.06;1471153;87;21493;-80
2024/01/01 03:31:34;;;;;;;19.60;9.47;;;;;;;7.73;100.00;99773.55;1466515;88;21339;-81
2024/01/01 03:34:00;;;;;;;20.77;12.07;;;;;;;7.69;100.00;99755.91;1470765;87;22180;-80
2024/01/01 03:36:27;;;;;;;20.13;11.77;;;;;;;7.68;100.00;99756.03;1473412;87;21574;-79
2024/01/01 03:38:53;;;;;;;17.00;9.57;;;;;;;7.65;100.00;99751.91;1473307;88;21493;-80
2024/01/01 03:41:19;;;;;;;16.60;8.60;;;;;;;7.63;100.00;99755.66;1465913;88;22218;-81
2024/01/01 03:43:45;;;;;;;14.97;9.00;;;;;;;7.61;100.00;99747.06;1474014;87;21352;-80
2024/01/01 03:46:11;;;;;;;17.63;9.73;;;;;;;7.59;100.00;99748.52;1476230;88;21397;-80
2024/01/01 03:48:38;;;;;;;27.60;11.57;;;;;;;7.59;100.00;99746.38;1477686;88;22434;-80
2024/01/01 03:51:05;;;;;;;28.07;13.47;;;;;;;7.59;100.00;99744.56;1470368;88;21420;-80
2024/01/01 03:53:31;;;;;;;22.80;12.20;;;;;;;7.60;100.00;99746.24;1473561;88;21368;-81
2024/01/01 03:55:58;;;;;;;17.27;10.53;;;;;;;7.60;100.00;99739.66;1473245;88;22425;-79
2024/01/01 03:58:25;;;;;;;27.97;13.10;;;;;;;7.62;100.00;99736.41;1474015;88;21486;-81
2024/01/01 04:00:51;;;;;;;23.60;11.87;;;;;;;7.62;100.00;99726.33;1469885;87;21434;-81
2024/01/01 04:03:17;;;;;;;19.30;12.00;;;;;;;7.60;100.00;99719.91;1466591;88;21441;-79
2024/01/01 04:05:43;;;;;;;15.77;9.97;;;;;;;7.57;100.00;99712.80;1471238;87;21421;-80
2024/01/01 04:08:09;;;;;;;26.30;12.53;;;;;;;7.57;100.00;99715.42;1469287;88;21460;-81
2024/01/01 04:10:35;;;;;;;19.30;10.97;;;;;;;7.53;100.00;99716.18;1463451;88;21494;-80
2024/01/01 04:13:01;;;;;;;19.37;11.40;;;;;;;7.53;100.00;99719.30;1477043;88;22966;-80
2024/01/01 04:15:28;;;;;;;22.10;13.07;;;;;;;7.51;100.00;99719.93;1475134;87;21405;-80
2024/01/01 04:17:54;;;;;;;18.47;10.83;;;;;;;7.49;100.00;99710.87;1471272;88;21375;-81
2024/01/01 04:20:20;;;;;;;17.97;10.13;;;;;;;7.48;100.00;99704.42;1464856;88;21411;-80
2024/01/01 04:22:48;;;;;;;21.40;11.10;;;;;;;7.44;100.00;99703.41;1475287;87;21390;-80
2024/01/01 04:25:14;;;;;;;15.20;9.93;;;;;;;7.44;100.00;99706.53;1468157;88;21390;-80
2024/01/01 04:27:42;;;;;;;19.80;10.90;;;;;;;7.43;100.00;99708.83;1471631;87;21412;-80
2024/01/01 04:30:10;;;;;;;18.13;11.03;;;;;;;7.45;100.00;99710.34;1471535;87;21515;-80
2024/01/01 04:32:36;;;;;;;18.87;11.33;;;;;;;7.45;100.00;99714.30;1475437;87;21538;-80
2024/01/01 04:35:03;;;;;;;18.50;10.03;;;;;;;7.47;100.00;99722.03;1478100;87;21389;-81
2024/01/01 04:37:30;;;;;;;26.30;10.47;;;;;;;7.45;100.00;99720.02;1466949;87;21345;-81
2024/01/01 04:39:57;;;;;;;16.17;9.60;;;;;;;7.43;100.00;99718.05;1472310;87;21552;-79
2024/01/01 04:42:23;;;;;;;20.27;10.03;;;;;;;7.41;100.00;99723.93;1466686;87;22247;-81
2024/01/01 04:44:49;;;;;;;16.27;9.97;;;;;;;7.39;100.00;99719.28;1464947;88;21390;-82
2024/01/01 04:47:15;;;;;;;12.43;8.93;;;;;;;7.39;100.00;99717.51;1473642;87;21420;-81
2024/01/01 04:49:41;;;;;;;18.50;10.53;;;;;;;7.37;100.00;99717.30;1464273;88;21397;-81
2024/01/01 04:52:08;;;;;;;14.43;9.07;;;;;;;7.34;100.00;99709.70;1470038;87;21427;-81
2024/01/01 04:54:34;;;;;;;16.57;10.13;;;;;;;7.31;100.00;99710.81;1476400;88;21524;-82
2024/01/01 04:57:00;;;;;;;15.30;10.03;;;;;;;7.29;100.00;99711.93;1477591;87;21389;-81
2024/01/01 04:59:26;;;;;;;15.67;9.00;;;;;;;7.27;100.00;99708.11;1476407;87;21426;-82
2024/01/01 05:01:52;;;;;;;16.90;10.47;;;;;;;7.26;100.00;99712.22;1479136;87;21405;-81
2024/01/01 05:04:20;;;;;;;13.73;9.47;;;;;;;7.22;100.00;99701.98;1474123;87;21515;-81
2024/01/01 05:06:46;;;;;;;18.00;10.70;;;;;;;7.21;100.00;99704.25;1477241;87;21368;-81
2024/01/01 05:09:12;;;;;;;19.27;10.93;;;;;;;7.17;100.00;99705.52;1473375;87;21397;-79
2024/01/01 05:11:42;;;;;;;18.10;10.40;;;;;;;7.13;100.00;99708.57;1472641;87;22370;-80
2024/01/01 05:14:08;;;;;;;18.40;10.70;;;;;;;7.09;100.00;99701.45;1473902;87;21361;-81
2024/01/01 05:16:36;;;;;;;19.27;10.70;;;;;;;7.07;100.00;99692.86;1480854;87;21346;-79
2024/01/01 05:19:03;;;;;;;17.50;11.50;;;;;;;7.06;100.00;99697.80;1479650;88;21264;-80
2024/01/01 05:21:29;;;;;;;23.50;13.77;;;;;;;7.04;100.00;99689.20;1484493;87;21331;-80
2024/01/01 05:23:55;;;;;;;28.43;13.27;;;;;;;7.06;100.00;99693.02;1469320;88;22321;-81
2024/01/01 05:26:22;;;;;;;35.07;13.50;;;;;;;7.02;100.00;99687.23;1472833;87;21640;-81
2024/01/01 05:28:48;;;;;;;27.17;13.80;;;;;;;7.00;100.00;99683.41;1472262;87;21537;-81
2024/01/01 05:31:20;;;;;;;22.60;12.43;;;;;;;6.98;100.00;99681.89;1470038;88;21398;-82
2024/01/01 05:33:49;;;;;;;29.40;14.10;;;;;;;6.97;100.00;99676.30;1480928;88;21352;-80
2024/01/01 05:36:16;;;;;;;15.73;9.43;;;;;;;6.96;100.00;99674.61;1478759;88;21375;-81
2024/01/01 05:38:42;;;;;;;29.20;15.10;;;;;;;6.97;100.00;99677.61;1468715;87;21455;-81
2024/01/01 05:41:11;;;;;;;30.00;13.23;;;;;;;6.97;100.00;99667.09;1472065;88;22251;-81
2024/01/01 05:43:38;;;;;;;32.23;14.47;;;;;;;6.98;100.00;99667.41;1470445;88;21442;-81
2024/01/01 05:46:05;;;;;;;35.30;15.67;;;;;;;6.97;100.00;99668.40;1466612;88;22072;-81
2024/01/01 05:48:32;;;;;;;48.83;20.10;;;;;;;6.96;100.00;99664.09;1470531;87;22226;-81
2024/01/01 05:50:58;;;;;;;39.67;17.07;;;;;;;6.94;100.00;99663.42;1472293;88;21351;-81
2024/01/01 05:53:24;;;;;;;40.70;15.00;;;;;;;6.92;100.00;99663.55;1470799;87;21375;-79
2024/01/01 05:55:50;;;;;;;28.63;12.67;;;;;;;6.91;100.00;99665.03;1469037;88;21545;-80
2024/01/01 05:58:16;;;;;;;27.93;13.47;;;;;;;6.92;100.00;99660.09;1465417;88;22410;-80
2024/01/01 06:00:42;;;;;;;29.70;12.77;;;;;;;6.94;100.00;99662.11;1471980;88;21383;-80
2024/01/01 06:03:08;;;;;;;21.43;11.60;;;;;;;6.94;100.00;99661.62;1477104;87;21531;-81
2024/01/01 06:05:35;;;;;;;21.37;12.37;;;;;;;6.95;100.00;99657.18;1461478;88;22322;-80
2024/01/01 06:08:05;;;;;;;29.50;13.37;;;;;;;6.93;100.00;99658.66;1470715;87;21404;-80
2024/01/01 06:10:32;;;;;;;17.67;9.67;;;;;;;6.95;100.00;99658.50;1480191;88;22359;-80
2024/01/01 06:12:58;;;;;;;44.17;14.80;;;;;;;6.95;100.00;99659.81;1476357;88;22190;-80
2024/01/01 06:15:29;;;;;;;21.93;11.30;;;;;;;6.98;100.00;99659.52;1472164;88;21339;-79
2024/01/01 06:17:56;;;;;;;;;;;;;;;6.99;100.00;99657.22;1472830;88;22328;-80
2024/01/01 06:20:22;;;;;;;20.77;11.40;;;;;;;6.95;100.00;99651.92;1473361;87;20430;-80
2024/01/01 06:22:48;;;;;;;17.23;10.80;;;;;;;6.94;100.00;99660.80;1475128;87;21456;-78
2024/01/01 06:25:15;;;;;;;17.33;10.30;;;;;;;6.89;100.00;99664.33;1480334;88;22299;-78
2024/01/01 06:27:41;;;;;;;14.93;10.63;;;;;;;6.86;100.00;99666.76;1466534;87;21353;-77
2024/01/01 06:30:08;;;;;;;20.13;11.60;;;;;;;6.83;100.00;99672.30;1468341;88;21427;-78
2024/01/01 06:32:34;;;;;;;20.80;12.50;;;;;;;6.78;100.00;99670.58;1479065;87;21368;-78
2024/01/01 06:35:00;;;;;;;19.13;11.87;;;;;;;6.76;100.00;99674.68;1471629;88;22351;-77
2024/01/01 06:37:27;;;;;;;17.10;10.63;;;;;;;6.73;100.00;99674.11;1476651;87;22295;-78
2024/01/01 06:39:53;;;;;;;26.77;14.23;;;;;;;6.72;100.00;99673.28;1471364;87;21561;-79
2024/01/01 06:42:19;;;;;;;24.03;15.70;;;;;;;6.69;100.00;99673.57;1466349;88;21310;-79
2024/01/01 06:44:45;;;;;;;23.40;15.60;;;;;;;6.66;100.00;99662.02;1479820;88;21494;-80
2024/01/01 06:47:11;;;;;;;24.07;13.70;;;;;;;6.64;100.00;99661.33;1470684;87;21462;-78
2024/01/01 06:49:37;;;;;;;22.57;14.37;;;;;;;6.63;100.00;99665.42;1468538;87;22212;-77
2024/01/01 06:52:06;;;;;;;29.43;15.23;;;;;;;6.61;100.00;99671.30;1474360;87;21360;-77
2024/01/01 06:54:32;;;;;;;21.23;13.70;;;;;;;6.56;100.00;99665.17;1472577;87;21441;-77
2024/01/01 06:56:58;;;;;;;16.63;11.77;;;;;;;6.56;100.00;99661.22;1469205;87;21302;-77
2024/01/01 06:59:32;;;;;;;21.23;12.67;;;;;;;6.55;100.00;99659.55;1469295;88;21556;-77
2024/01/01 07:01:57;;;;;;;19.95;10.88;;;;;;;6.57;100.00;99658.93;1467087;88;21491;-77
2024/01/01 07:04:23;;;;;;;19.97;10.47;;;;;;;6.57;100.00;99658.93;1471440;87;22359;-77
2024/01/01 07:06:49;;;;;;;20.80;12.10;;;;;;;6.56;100.00;99657.28;1477593;87;21947;-78
2024/01/01 07:09:15;;;;;;;16.67;11.30;;;;;;;6.57;100.00;99653.67;1473530;88;21332;-78
2024/01/01 07:11:41;;;;;;;23.07;12.77;;;;;;;6.58;100.00;99652.69;1466488;87;21397;-78
2024/01/01 07:14:07;;;;;;;19.70;11.67;;;;;;;6.56;100.00;99648.08;1464998;88;21463;-79
2024/01/01 07:16:33;;;;;;;21.00;12.20;;;;;;;6.55;100.00;99641.97;1465516;87;22269;-78
2024/01/01 07:18:59;;;;;;;20.33;11.87;;;;;;;6.55;100.00;99643.28;1471301;88;21404;-79
2024/01/01 07:21:25;;;;;;;21.20;12.63;;;;;;;6.55;100.00;99645.09;1476191;87;21449;-79
2024/01/01 07:23:51;;;;;;;31.30;13.83;;;;;;;6.56;100.00;99646.77;1476864;88;22188;-80
2024/01/01 07:26:18;;;;;;;32.47;14.90;;;;;;;6.58;100.00;99638.72;1459712;88;21375;-79
2024/01/01 07:28:44;;;;;;;25.00;14.17;;;;;;;6.59;100.00;99646.48;1479288;87;21376;-80
2024/01/01 07:31:11;;;;;;;26.33;14.17;;;;;;;6.60;100.00;99641.55;1480366;87;22743;-79
2024/01/01 07:33:38;;;;;;;24.60;12.67;;;;;;;6.61;100.00;99632.69;1484860;88;21389;-78
2024/01/01 07:36:11;;;;;;;24.70;13.10;;;;;;;6.62;100.00;99633.05;1471939;87;21604;-79
2024/01/01 07:38:40;;;;;;;23.43;12.00;;;;;;;6.65;100.00;99630.14;1487217;87;21471;-79
2024/01/01 07:41:06;;;;;;;21.13;12.53;;;;;;;6.65;100.00;99618.30;1475861;87;21323;-78
2024/01/01 07:43:32;;;;;;;29.03;15.33;;;;;;;6.67;100.00;99618.14;1471858;87;22853;-78
2024/01/01 07:45:58;;;;;;;25.60;14.07;;;;;;;6.68;100.00;99618.02;1469432;87;21390;-79
2024/01/01 07:48:25;;;;;;;34.97;15.40;;;;;;;6.67;100.00;99616.34;1473518;88;22137;-78
2024/01/01 07:50:51;;;;;;;43.47;17.13;;;;;;;6.69;100.00;99606.52;1465887;88;21445;-77
2024/01/01 07:53:17;;;;;;;35.40;15.23;;;;;;;6.69;100.00;99603.89;1477445;87;21354;-78
2024/01/01 07:55:43;;;;;;;18.97;10.27;;;;;;;6.71;100.00;99601.95;1477842;87;21486;-79
2024/01/01 07:58:10;;;;;;;21.00;10.37;;;;;;;6.70;100.00;99585.84;1467174;87;21413;-78
2024/01/01 08:00:36;;;;;;;22.97;10.73;;;;;;;6.71;100.00;99576.97;1475584;87;22454;-79
2024/01/01 08:03:02;;;;;;;16.50;9.80;;;;;;;6.69;100.00;99568.38;1473087;87;21825;-79
2024/01/01 08:05:28;;;;;;;43.47;15.57;;;;;;;6.68;100.00;99567.23;1475985;87;22204;-79
2024/01/01 08:07:57;;;;;;;45.03;18.20;;;;;;;6.67;100.00;99570.32;1475842;87;21524;-78
2024/01/01 08:10:22;;;;;;;31.00;14.40;;;;;;;6.70;100.00;99582.36;1474746;88;22248;-78
2024/01/01 08:12:48;;;;;;;44.00;16.70;;;;;;;6.69;100.00;99576.27;1474650;88;21361;-78
2024/01/01 08:15:15;;;;;;;75.43;25.87;;;;;;;6.73;100.00;99571.55;1463495;88;21367;-78
2024/01/01 08:17:41;;;;;;;27.70;13.13;;;;;;;6.75;100.00;99569.13;1468570;88;21509;-77
2024/01/01 08:20:08;;;;;;;54.97;20.53;;;;;;;6.78;100.00;99561.44;1479738;87;22240;-78
2024/01/01 08:22:34;;;;;;;98.30;31.63;;;;;;;6.82;100.00;99572.02;1473919;87;21323;-78
2024/01/01 08:25:00;;;;;;;42.23;16.80;;;;;;;6.87;100.00;99571.58;1473006;87;21331;-79
2024/01/01 08:27:26;;;;;;;29.13;13.70;;;;;;;6.91;100.00;99569.02;1465574;87;21449;-80
2024/01/01 08:29:53;;;;;;;23.77;12.33;;;;;;;6.94;100.00;99566.09;1474298;87;21601;-80
2024/01/01 08:32:23;;;;;;;14.60;9.85;;;;;;;6.95;100.00;99590.92;1474505;88;21412;-80
2024/01/01 08:34:49;;;;;;;15.50;9.33;;;;;;;6.97;100.00;99590.80;1477205;88;21612;-80
2024/01/01 08:37:16;;;;;;;16.43;9.63;;;;;;;6.97;100.00;99592.11;1471781;88;22557;-80
2024/01/01 08:39:42;;;;;;;19.50;11.73;;;;;;;6.99;100.00;99594.09;1471598;87;21456;-80
2024/01/01 08:42:09;;;;;;;13.33;8.97;;;;;;;7.02;100.00;99600.41;1469506;88;22469;-80
2024/01/01 08:44:35;;;;;;;16.70;8.57;;;;;;;7.05;100.00;99594.84;1475984;88;21346;-80
2024/01/01 08:47:01;;;;;;;16.97;9.97;;;;;;;7.10;100.00;99589.95;1473870;88;21346;-80
2024/01/01 08:49:27;;;;;;;14.47;9.70;;;;;;;7.17;100.00;99585.78;1473731;87;22314;-80
2024/01/01 08:51:53;;;;;;;25.27;13.43;;;;;;;7.22;100.00;99580.06;1474054;88;21460;-81
2024/01/01 08:54:19;;;;;;;34.03;15.20;;;;;;;7.26;100.00;99580.13;1480500;87;21383;-79
2024/01/01 08:56:46;;;;;;;16.67;9.53;;;;;;;7.32;100.00;99579.53;1462131;88;21404;-80
2024/01/01 08:59:13;;;;;;;20.60;11.13;;;;;;;7.36;100.00;99576.11;1462527;88;21391;-81
2024/01/01 09:01:46;;;;;;;24.63;12.47;;;;;;;7.39;100.00;99582.39;1471112;88;21450;-81
2024/01/01 09:04:13;;;;;;;15.90;8.77;;;;;;;7.41;100.00;99588.34;1468365;87;21435;-80
2024/01/01 09:06:42;;;;;;;15.97;9.07;;;;;;;7.39;100.00;99585.03;1466880;87;21412;-81
2024/01/01 09:09:08;;;;;;;14.97;9.00;;;;;;;7.39;100.00;99585.03;1482717;87;21419;-81
2024/01/01 09:11:34;;;;;;;15.60;10.20;;;;;;;7.42;100.00;99589.99;1476079;88;21353;-80
2024/01/01 09:14:01;;;;;;;20.73;12.00;;;;;;;7.39;100.00;99590.30;1478597;87;21540;-80
2024/01/01 09:16:31;;;;;;;24.13;11.73;;;;;;;7.39;100.00;99583.70;1478322;87;21450;-81
2024/01/01 09:19:01;;;;;;;18.57;10.78;;;;;;;7.36;100.00;99584.01;1470309;88;22358;-83
2024/01/01 09:21:27;;;;;;;20.80;13.03;;;;;;;7.30;100.00;99581.97;1464273;87;21480;-81
2024/01/01 09:24:00;;;;;;;17.97;13.23;;;;;;;7.29;100.00;99581.64;1478666;88;21426;-81
2024/01/01 09:26:25;;;;;;;16.80;11.47;;;;;;;7.28;100.00;99578.18;1474619;88;21383;-82
2024/01/01 09:28:51;;;;;;;21.30;14.33;;;;;;;7.22;100.00;99569.53;1470294;87;21345;-81
2024/01/01 09:31:17;;;;;;;24.70;16.03;;;;;;;7.20;100.00;99564.43;1469086;88;21584;-81
2024/01/01 09:33:44;;;;;;;27.73;15.40;;;;;;;7.18;100.00;99550.58;1471172;87;22527;-80
2024/01/01 09:36:13;;;;;;;34.53;19.50;;;;;;;7.15;100.00;99540.35;1469923;88;21368;-80
2024/01/01 09:38:41;;;;;;;27.70;13.90;;;;;;;7.11;100.00;99540.81;1466911;88;21375;-81
2024/01/01 09:41:14;;;;;;;24.10;14.37;;;;;;;7.07;100.00;99521.84;1474289;88;21427;-82
2024/01/01 09:43:41;;;;;;;28.17;15.93;;;;;;;7.01;100.00;99510.59;1480779;87;21368;-80
2024/01/01 09:46:08;;;;;;;21.63;12.13;;;;;;;6.99;100.00;99501.55;1472483;87;21475;-80
2024/01/01 09:48:34;;;;;;;20.20;11.07;;;;;;;6.99;100.00;99493.66;1470690;88;21383;-80
2024/01/01 09:51:03;;;;;;;16.67;10.23;;;;;;;6.98;100.00;99495.09;1464636;88;21512;-80
2024/01/01 09:53:31;;;;;;;20.70;11.90;;;;;;;6.94;100.00;99468.77;1474071;88;21375;-80
2024/01/01 09:55:57;;;;;;;16.13;9.07;;;;;;;6.96;100.00;99449.69;1476518;88;21471;-79
2024/01/01 09:58:23;;;;;;;15.03;9.97;;;;;;;6.94;100.00;99425.36;1471292;87;21419;-79
2024/01/01 10:00:49;;;;;;;21.00;11.07;;;;;;;6.94;100.00;99414.34;1476053;88;21435;-78
2024/01/01 10:03:16;;;;;;;17.37;10.30;;;;;;;6.94;100.00;99414.83;1473557;88;22299;-82
2024/01/01 10:05:44;;;;;;;15.00;10.40;;;;;;;6.94;100.00;99416.15;1469969;88;21472;-81
2024/01/01 10:08:16;;;;;;;15.87;10.73;;;;;;;6.97;100.00;99415.85;1470565;87;22115;-81
2024/01/01 10:10:43;;;;;;;15.87;10.17;;;;;;;7.00;100.00;99423.44;1461913;88;21526;-80
2024/01/01 10:13:13;;;;;;;21.63;12.30;;;;;;;7.02;100.00;99441.23;1471393;88;22285;-80
2024/01/01 10:15:41;;;;;;;18.93;11.83;;;;;;;7.06;100.00;99450.96;1470733;87;21316;-81
2024/01/01 10:18:16;;;;;;;16.57;10.27;;;;;;;7.12;100.00;99463.02;1473500;87;22429;-80
2024/01/01 10:20:43;;;;;;;16.53;10.70;;;;;;;7.17;100.00;99467.36;1477644;88;21419;-79
2024/01/01 10:23:27;;;;;;;15.93;10.37;;;;;;;7.17;100.00;99477.88;1477921;88;22418;-80
2024/01/01 10:26:12;;;;;;;17.03;11.53;;;;;;;7.19;100.00;99490.41;1497236;87;21345;-81
2024/01/01 10:28:40;;;;;;;20.03;12.67;;;;;;;7.17;100.00;99485.78;1469272;88;22440;-80
2024/01/01 10:31:07;;;;;;;14.90;10.13;;;;;;;7.13;100.00;99485.72;1464686;88;21732;-80
2024/01/01 10:33:34;;;;;;;20.00;11.37;;;;;;;7.14;100.00;99481.31;1475964;88;21412;-80
2024/01/01 10:36:04;;;;;;;16.43;10.87;;;;;;;7.11;100.00;99467.95;1464572;88;21337;-80
2024/01/01 10:38:31;;;;;;;16.90;11.90;;;;;;;7.07;100.00;99469.21;1420501;87;22358;-80
2024/01/01 10:40:59;;;;;;;20.17;12.87;;;;;;;7.03;100.00;99446.82;1460789;87;21425;-80
2024/01/01 10:43:27;;;;;;;14.63;10.50;;;;;;;7.02;100.00;99447.81;1557481;87;21321;-81
2024/01/01 10:46:03;;;;;;;17.33;11.43;;;;;;;7.00;100.00;99440.55;1401658;88;21360;-80
2024/01/01 10:48:35;;;;;;;19.77;12.80;;;;;;;6.98;100.00;99428.02;1557719;87;21177;-80
2024/01/01 10:51:41;;;;;;;20.77;12.57;;;;;;;6.96;100.00;99435.22;1556527;87;21310;-80
2024/01/01 10:54:50;;;;;;;18.67;12.03;;;;;;;6.94;100.00;99434.56;1397892;87;21358;-80
2024/01/01 10:57:45;;;;;;;16.97;11.10;;;;;;;6.94;100.00;99436.70;1552214;87;21450;-81
2024/01/01 11:00:47;;;;;;;22.17;12.53;;;;;;;6.92;100.00;99432.56;1433427;88;22212;-80
2024/01/01 11:03:14;;;;;;;19.43;11.80;;;;;;;6.93;100.00;99428.94;1431531;91;21468;-80
2024/01/01 11:05:41;;;;;;;18.47;10.40;;;;;;;6.88;100.00;99429.90;1426847;91;21475;-80
2024/01/01 11:08:07;;;;;;;17.80;11.93;;;;;;;6.87;100.00;99412.44;1427879;91;21395;-81
2024/01/01 11:10:44;;;;;;;21.37;11.40;;;;;;;6.84;100.00;99408.30;1427376;91;21388;-80
2024/01/01 11:13:14;;;;;;;19.70;12.90;;;;;;;6.84;100.00;99391.70;1427592;91;21432;-80
2024/01/01 11:15:45;;;;;;;17.87;12.77;;;;;;;6.80;100.00;99370.63;1417392;91;21468;-81
2024/01/01 11:18:17;;;;;;;21.02;13.85;;;;;;;6.77;100.00;99352.85;1429476;91;21387;-81
2024/01/01 11:20:55;;;;;;;21.37;13.67;;;;;;;6.73;100.00;99356.77;1428700;91;21483;-82